Minerva Astra — 9HDW7 — position and weather

sailwx.info

Track history (hours):
 
Tides and Currents Weather Stations Pressure Air Temp Water Temp Dewpoint Dewpoint Depression Visibility Wind Speed Wind Dir Waves Ship Positions

Minerva Astra

Last reported at 2014-Sep-01 11:33 UTC. Time now 2014-Sep-01 11:36 UTC.
Position N 44°08' E 008°43'.

Length 248 m; draft 10.2 m.

Type: Tanker. MMSI: 256703000.

Date/timePositionNaut miles runAvg speedWind from/ knotsBaromVisibWave heightAir tempDewpointWater temp
2014-Sep-01 11:33N 44°08' E 008°43'1 1.3
2014-Sep-01 10:33N 44°09' E 008°44'1 1.4
2014-Sep-01 09:32N 44°10' E 008°45'2 1.8
2014-Sep-01 08:33N 44°12' E 008°47'1 1.3
2014-Sep-01 07:33N 44°12' E 008°48'4 4.5
2014-Sep-01 06:33N 44°09' E 008°43'1 1.1
2014-Sep-01 05:33N 44°10' E 008°43'1 0.8
2014-Sep-01 04:33N 44°11' E 008°43'0 0.3
2014-Sep-01 03:33N 44°11' E 008°44'1 0.5
2014-Sep-01 02:33N 44°12' E 008°44'0 0.4
2014-Sep-01 01:32N 44°12' E 008°45'0 0.4
2014-Sep-01 00:33N 44°12' E 008°45'0 0.4
2014-Aug-31 23:33N 44°11' E 008°46'0 0.4
2014-Aug-31 22:33N 44°11' E 008°46'0 0.3
2014-Aug-31 21:33N 44°11' E 008°47'0 0.2
2014-Aug-31 20:33N 44°11' E 008°47'0 0.2
2014-Aug-31 19:33N 44°11' E 008°47'0 0.3
2014-Aug-31 18:33N 44°11' E 008°48'1 0.5
2014-Aug-31 17:33N 44°11' E 008°48'5 5.1
2014-Aug-31 16:33N 44°08' E 008°43'3 3.4
2014-Aug-31 15:33N 44°05' E 008°41'0 0.3
2014-Aug-31 14:33N 44°05' E 008°41'0 0.3
2014-Aug-31 13:32N 44°06' E 008°42'0 0.3
2014-Aug-31 12:28N 44°06' E 008°42'0 0.4
2014-Aug-31 11:33N 44°06' E 008°42'0 0.4
2014-Aug-31 10:33N 44°07' E 008°42'0 0.4
2014-Aug-31 09:33N 44°07' E 008°42'0 0.3
2014-Aug-31 08:33N 44°07' E 008°43'0 0.3
2014-Aug-31 07:33N 44°07' E 008°43'0 0.3
2014-Aug-31 06:33N 44°08' E 008°43'0 0.3
2014-Aug-31 05:33N 44°08' E 008°43'0 0.3
2014-Aug-31 04:33N 44°08' E 008°44'0 0.3
2014-Aug-31 03:33N 44°08' E 008°44'0 0.4
2014-Aug-31 02:33N 44°08' E 008°44'0 0.4
2014-Aug-31 01:33N 44°08' E 008°45'0 0.4
2014-Aug-31 00:33N 44°09' E 008°46'0 0.4
2014-Aug-30 23:33N 44°09' E 008°46'0 0.4
2014-Aug-30 22:33N 44°09' E 008°47'0 0.5
2014-Aug-30 21:33N 44°09' E 008°47'0 0.5
2014-Aug-30 20:33N 44°10' E 008°48'1 0.5
2014-Aug-30 19:33N 44°10' E 008°48'1 0.6
2014-Aug-30 18:33N 44°10' E 008°49'1 0.6
2014-Aug-30 17:33N 44°10' E 008°50'6 6.0
2014-Aug-30 16:33N 44°09' E 008°42'0 0.3
2014-Aug-30 15:33N 44°10' E 008°42'0 0.2
2014-Aug-30 14:33N 44°10' E 008°42'0 0.3
2014-Aug-30 13:33N 44°10' E 008°42'0 0.5
2014-Aug-30 12:33N 44°10' E 008°43'0 0.4
2014-Aug-30 11:33N 44°10' E 008°44'0 0.4
2014-Aug-30 10:33N 44°10' E 008°44'2 1.7
2014-Aug-30 09:33N 44°09' E 008°46'8 7.7
2014-Aug-30 08:33N 44°01' E 008°48'0 0.3
2014-Aug-30 07:33N 44°01' E 008°48'0 0.3
2014-Aug-30 06:33N 44°02' E 008°48'0 0.3
2014-Aug-30 05:33N 44°02' E 008°48'0 0.2
2014-Aug-30 04:33N 44°02' E 008°48'0 0.2
2014-Aug-30 03:33N 44°02' E 008°48'0 0.4
2014-Aug-30 02:33N 44°02' E 008°49'0 0.5
2014-Aug-30 01:33N 44°03' E 008°49'1 0.6
2014-Aug-30 00:33N 44°03' E 008°49'1 0.6
2014-Aug-29 23:33N 44°04' E 008°49'1 0.6
2014-Aug-29 22:33N 44°05' E 008°49'1 0.6
2014-Aug-29 21:33N 44°05' E 008°49'1 0.6
2014-Aug-29 20:33N 44°06' E 008°49'0 0.4
2014-Aug-29 19:33N 44°06' E 008°48'1 0.5
2014-Aug-29 18:33N 44°06' E 008°48'4 3.9
2014-Aug-29 17:33N 44°10' E 008°46'3 3.1
2014-Aug-29 16:33N 44°13' E 008°44'0 0.5
2014-Aug-29 15:33N 44°12' E 008°44'0 0.4
2014-Aug-29 14:33N 44°12' E 008°44'0 0.3
2014-Aug-29 13:33N 44°12' E 008°44'1 0.5
2014-Aug-29 12:33N 44°12' E 008°45'0 0.5
2014-Aug-29 11:33N 44°12' E 008°45'1 0.5
2014-Aug-29 10:33N 44°12' E 008°46'1 0.5
2014-Aug-29 09:29N 44°12' E 008°47'0 0.4
2014-Aug-29 08:33N 44°12' E 008°47'4 3.5
2014-Aug-29 07:33N 44°09' E 008°48'2 2.0
2014-Aug-29 06:32N 44°07' E 008°48'1 0.6
2014-Aug-29 05:33N 44°07' E 008°48'1 0.5
2014-Aug-29 04:12N 44°08' E 008°49'0 0.4
2014-Aug-29 03:33N 44°08' E 008°49'0 0.3
2014-Aug-29 02:33N 44°08' E 008°49'0 0.4
2014-Aug-29 01:33N 44°08' E 008°50'0 0.4
2014-Aug-29 00:33N 44°09' E 008°50'0 0.4
2014-Aug-28 23:33N 44°09' E 008°51'1 0.5
2014-Aug-28 22:33N 44°09' E 008°51'1 0.6
2014-Aug-28 21:33N 44°10' E 008°52'1 0.6
2014-Aug-28 20:33N 44°10' E 008°53'1 0.7
2014-Aug-28 19:33N 44°11' E 008°53'5 4.7
2014-Aug-28 18:33N 44°10' E 008°47'3 3.1
2014-Aug-28 17:33N 44°09' E 008°43'1 0.9
2014-Aug-28 16:33N 44°09' E 008°44'1 1.2
2014-Aug-28 15:33N 44°10' E 008°46'1 1.2
2014-Aug-28 14:33N 44°11' E 008°47'1 1.3
2014-Aug-28 13:33N 44°11' E 008°49'9 8.9
2014-Aug-28 12:33N 44°20' E 008°50'7 7.5
2014-Aug-28 11:33N 44°13' E 008°53'1212.1
2014-Aug-28 10:33N 44°01' E 008°59'1212.4
2014-Aug-28 09:33N 43°50' E 009°04'1312.7
2014-Aug-28 08:33N 43°38' E 009°12'1312.7
2014-Aug-28 07:33N 43°27' E 009°20'1312.5
2014-Aug-28 06:33N 43°16' E 009°29'1412.6
2014-Aug-28 05:28N 43°04' E 009°37'2812.4
2014-Aug-28 03:10N 42°36' E 009°48'1012.0
2014-Aug-28 02:22N 42°27' E 009°51'11911.8
2014-Aug-27 16:17N 40°31' E 010°27'810.9
2014-Aug-27 15:33N 40°24' E 010°29'1111.1
2014-Aug-27 14:33N 40°13' E 010°33'1211.9
2014-Aug-27 13:33N 40°01' E 010°36'1312.4
2014-Aug-27 12:30N 39°49' E 010°40'1312.6
2014-Aug-27 11:26N 39°35' E 010°44'5313.0
2014-Aug-27 07:19N 38°43' E 010°60'911.8
2014-Aug-27 06:33N 38°35' E 011°03'1511.2
2014-Aug-27 05:15N 38°20' E 011°07'811.2
2014-Aug-27 04:33N 38°13' E 011°09'3411.4
2014-Aug-27 01:34N 37°40' E 011°19'1311.5
2014-Aug-27 00:27N 37°27' E 011°21'9 9.8
2014-Aug-26 23:33N 37°19' E 011°27'1111.0
2014-Aug-26 22:34N 37°14' E 011°39'1110.8
2014-Aug-26 21:33N 37°09' E 011°51'1111.5
2014-Aug-26 20:33N 37°03' E 012°03'1312.6
2014-Aug-26 19:33N 36°57' E 012°17'1312.6
2014-Aug-26 18:33N 36°51' E 012°31'1312.8
2014-Aug-26 17:33N 36°46' E 012°46'1212.1
2014-Aug-26 16:33N 36°41' E 012°60'1211.7
2014-Aug-26 15:33N 36°36' E 013°13'1111.5
2014-Aug-26 14:33N 36°32' E 013°26'1010.5
2014-Aug-26 13:33N 36°27' E 013°38'1110.5
2014-Aug-26 12:33N 36°23' E 013°50'1110.7
2014-Aug-26 11:33N 36°19' E 014°02'1110.8
2014-Aug-26 10:33N 36°14' E 014°14'53711.9
2014-Aug-24 13:33N 32°20' E 023°60'  
Track history (hours):
 
Tides and Currents Weather Stations Pressure Air Temp Water Temp Dewpoint Dewpoint Depression Visibility Wind Speed Wind Dir Waves Ship Positions

Minerva Astra

Last reported at 2014-Sep-01 11:33 UTC. Time now 2014-Sep-01 11:36 UTC.
Position N 44°08' E 008°43'.

Length 248 m; draft 10.2 m.

Type: Tanker. MMSI: 256703000.

Date/timePositionNaut miles runAvg speedWind from/ knotsBaromVisibWave heightAir tempDewpointWater temp
2014-Sep-01 11:33N 44°08' E 008°43'1 1.3
2014-Sep-01 10:33N 44°09' E 008°44'1 1.4
2014-Sep-01 09:32N 44°10' E 008°45'2 1.8
2014-Sep-01 08:33N 44°12' E 008°47'1 1.3
2014-Sep-01 07:33N 44°12' E 008°48'4 4.5
2014-Sep-01 06:33N 44°09' E 008°43'1 1.1
2014-Sep-01 05:33N 44°10' E 008°43'1 0.8
2014-Sep-01 04:33N 44°11' E 008°43'0 0.3
2014-Sep-01 03:33N 44°11' E 008°44'1 0.5
2014-Sep-01 02:33N 44°12' E 008°44'0 0.4
2014-Sep-01 01:32N 44°12' E 008°45'0 0.4
2014-Sep-01 00:33N 44°12' E 008°45'0 0.4
2014-Aug-31 23:33N 44°11' E 008°46'0 0.4
2014-Aug-31 22:33N 44°11' E 008°46'0 0.3
2014-Aug-31 21:33N 44°11' E 008°47'0 0.2
2014-Aug-31 20:33N 44°11' E 008°47'0 0.2
2014-Aug-31 19:33N 44°11' E 008°47'0 0.3
2014-Aug-31 18:33N 44°11' E 008°48'1 0.5
2014-Aug-31 17:33N 44°11' E 008°48'5 5.1
2014-Aug-31 16:33N 44°08' E 008°43'3 3.4
2014-Aug-31 15:33N 44°05' E 008°41'0 0.3
2014-Aug-31 14:33N 44°05' E 008°41'0 0.3
2014-Aug-31 13:32N 44°06' E 008°42'0 0.3
2014-Aug-31 12:28N 44°06' E 008°42'0 0.4
2014-Aug-31 11:33N 44°06' E 008°42'0 0.4
2014-Aug-31 10:33N 44°07' E 008°42'0 0.4
2014-Aug-31 09:33N 44°07' E 008°42'0 0.3
2014-Aug-31 08:33N 44°07' E 008°43'0 0.3
2014-Aug-31 07:33N 44°07' E 008°43'0 0.3
2014-Aug-31 06:33N 44°08' E 008°43'0 0.3
2014-Aug-31 05:33N 44°08' E 008°43'0 0.3
2014-Aug-31 04:33N 44°08' E 008°44'0 0.3
2014-Aug-31 03:33N 44°08' E 008°44'0 0.4
2014-Aug-31 02:33N 44°08' E 008°44'0 0.4
2014-Aug-31 01:33N 44°08' E 008°45'0 0.4
2014-Aug-31 00:33N 44°09' E 008°46'0 0.4
2014-Aug-30 23:33N 44°09' E 008°46'0 0.4
2014-Aug-30 22:33N 44°09' E 008°47'0 0.5
2014-Aug-30 21:33N 44°09' E 008°47'0 0.5
2014-Aug-30 20:33N 44°10' E 008°48'1 0.5
2014-Aug-30 19:33N 44°10' E 008°48'1 0.6
2014-Aug-30 18:33N 44°10' E 008°49'1 0.6
2014-Aug-30 17:33N 44°10' E 008°50'6 6.0
2014-Aug-30 16:33N 44°09' E 008°42'0 0.3
2014-Aug-30 15:33N 44°10' E 008°42'0 0.2
2014-Aug-30 14:33N 44°10' E 008°42'0 0.3
2014-Aug-30 13:33N 44°10' E 008°42'0 0.5
2014-Aug-30 12:33N 44°10' E 008°43'0 0.4
2014-Aug-30 11:33N 44°10' E 008°44'0 0.4
2014-Aug-30 10:33N 44°10' E 008°44'2 1.7
2014-Aug-30 09:33N 44°09' E 008°46'8 7.7
2014-Aug-30 08:33N 44°01' E 008°48'0 0.3
2014-Aug-30 07:33N 44°01' E 008°48'0 0.3
2014-Aug-30 06:33N 44°02' E 008°48'0 0.3
2014-Aug-30 05:33N 44°02' E 008°48'0 0.2
2014-Aug-30 04:33N 44°02' E 008°48'0 0.2
2014-Aug-30 03:33N 44°02' E 008°48'0 0.4
2014-Aug-30 02:33N 44°02' E 008°49'0 0.5
2014-Aug-30 01:33N 44°03' E 008°49'1 0.6
2014-Aug-30 00:33N 44°03' E 008°49'1 0.6
2014-Aug-29 23:33N 44°04' E 008°49'1 0.6
2014-Aug-29 22:33N 44°05' E 008°49'1 0.6
2014-Aug-29 21:33N 44°05' E 008°49'1 0.6
2014-Aug-29 20:33N 44°06' E 008°49'0 0.4
2014-Aug-29 19:33N 44°06' E 008°48'1 0.5
2014-Aug-29 18:33N 44°06' E 008°48'4 3.9
2014-Aug-29 17:33N 44°10' E 008°46'3 3.1
2014-Aug-29 16:33N 44°13' E 008°44'0 0.5
2014-Aug-29 15:33N 44°12' E 008°44'0 0.4
2014-Aug-29 14:33N 44°12' E 008°44'0 0.3
2014-Aug-29 13:33N 44°12' E 008°44'1 0.5
2014-Aug-29 12:33N 44°12' E 008°45'0 0.5
2014-Aug-29 11:33N 44°12' E 008°45'1 0.5
2014-Aug-29 10:33N 44°12' E 008°46'1 0.5
2014-Aug-29 09:29N 44°12' E 008°47'0 0.4
2014-Aug-29 08:33N 44°12' E 008°47'4 3.5
2014-Aug-29 07:33N 44°09' E 008°48'2 2.0
2014-Aug-29 06:32N 44°07' E 008°48'1 0.6
2014-Aug-29 05:33N 44°07' E 008°48'1 0.5
2014-Aug-29 04:12N 44°08' E 008°49'0 0.4
2014-Aug-29 03:33N 44°08' E 008°49'0 0.3
2014-Aug-29 02:33N 44°08' E 008°49'0 0.4
2014-Aug-29 01:33N 44°08' E 008°50'0 0.4
2014-Aug-29 00:33N 44°09' E 008°50'0 0.4
2014-Aug-28 23:33N 44°09' E 008°51'1 0.5
2014-Aug-28 22:33N 44°09' E 008°51'1 0.6
2014-Aug-28 21:33N 44°10' E 008°52'1 0.6
2014-Aug-28 20:33N 44°10' E 008°53'1 0.7
2014-Aug-28 19:33N 44°11' E 008°53'5 4.7
2014-Aug-28 18:33N 44°10' E 008°47'3 3.1
2014-Aug-28 17:33N 44°09' E 008°43'1 0.9
2014-Aug-28 16:33N 44°09' E 008°44'1 1.2
2014-Aug-28 15:33N 44°10' E 008°46'1 1.2
2014-Aug-28 14:33N 44°11' E 008°47'1 1.3
2014-Aug-28 13:33N 44°11' E 008°49'9 8.9
2014-Aug-28 12:33N 44°20' E 008°50'7 7.5
2014-Aug-28 11:33N 44°13' E 008°53'1212.1
2014-Aug-28 10:33N 44°01' E 008°59'1212.4
2014-Aug-28 09:33N 43°50' E 009°04'1312.7
2014-Aug-28 08:33N 43°38' E 009°12'1312.7
2014-Aug-28 07:33N 43°27' E 009°20'1312.5
2014-Aug-28 06:33N 43°16' E 009°29'1412.6
2014-Aug-28 05:28N 43°04' E 009°37'2812.4
2014-Aug-28 03:10N 42°36' E 009°48'1012.0
2014-Aug-28 02:22N 42°27' E 009°51'11911.8
2014-Aug-27 16:17N 40°31' E 010°27'810.9
2014-Aug-27 15:33N 40°24' E 010°29'1111.1
2014-Aug-27 14:33N 40°13' E 010°33'1211.9
2014-Aug-27 13:33N 40°01' E 010°36'1312.4
2014-Aug-27 12:30N 39°49' E 010°40'1312.6
2014-Aug-27 11:26N 39°35' E 010°44'5313.0
2014-Aug-27 07:19N 38°43' E 010°60'911.8
2014-Aug-27 06:33N 38°35' E 011°03'1511.2
2014-Aug-27 05:15N 38°20' E 011°07'811.2
2014-Aug-27 04:33N 38°13' E 011°09'3411.4
2014-Aug-27 01:34N 37°40' E 011°19'1311.5
2014-Aug-27 00:27N 37°27' E 011°21'9 9.8
2014-Aug-26 23:33N 37°19' E 011°27'1111.0
2014-Aug-26 22:34N 37°14' E 011°39'1110.8
2014-Aug-26 21:33N 37°09' E 011°51'1111.5
2014-Aug-26 20:33N 37°03' E 012°03'1312.6
2014-Aug-26 19:33N 36°57' E 012°17'1312.6
2014-Aug-26 18:33N 36°51' E 012°31'1312.8
2014-Aug-26 17:33N 36°46' E 012°46'1212.1
2014-Aug-26 16:33N 36°41' E 012°60'1211.7
2014-Aug-26 15:33N 36°36' E 013°13'1111.5
2014-Aug-26 14:33N 36°32' E 013°26'1010.5
2014-Aug-26 13:33N 36°27' E 013°38'1110.5
2014-Aug-26 12:33N 36°23' E 013°50'1110.7
2014-Aug-26 11:33N 36°19' E 014°02'1110.8
2014-Aug-26 10:33N 36°14' E 014°14'53711.9
2014-Aug-24 13:33N 32°20' E 023°60'  

Dump ship's entire track history